sensor_id;sensor_type;location;lat;lon;timestamp;pressure;altitude;pressure_sealevel;temperature;humidity
6387;BME280;3226;42.162;24.756;2022-12-29T00:00:59;100856.91;;;4.31;94.08
6387;BME280;3226;42.162;24.756;2022-12-29T00:03:28;100876.34;;;4.43;93.91
6387;BME280;3226;42.162;24.756;2022-12-29T00:05:58;100877.19;;;4.43;93.02
6387;BME280;3226;42.162;24.756;2022-12-29T00:08:26;100869.13;;;4.27;94.18
6387;BME280;3226;42.162;24.756;2022-12-29T00:11:07;100866.41;;;4.30;94.61
6387;BME280;3226;42.162;24.756;2022-12-29T00:13:35;100866.06;;;4.40;93.48
6387;BME280;3226;42.162;24.756;2022-12-29T00:16:20;100869.44;;;4.42;93.35
6387;BME280;3226;42.162;24.756;2022-12-29T00:18:49;100880.84;;;4.38;93.72
6387;BME280;3226;42.162;24.756;2022-12-29T00:21:20;100879.91;;;4.40;93.42
6387;BME280;3226;42.162;24.756;2022-12-29T00:24:14;100889.09;;;4.49;92.94
6387;BME280;3226;42.162;24.756;2022-12-29T00:27:10;100882.81;;;4.55;92.92
6387;BME280;3226;42.162;24.756;2022-12-29T00:29:57;100881.06;;;4.55;93.34
6387;BME280;3226;42.162;24.756;2022-12-29T00:32:44;100864.16;;;4.45;93.16
6387;BME280;3226;42.162;24.756;2022-12-29T00:35:33;100895.09;;;4.49;93.42
6387;BME280;3226;42.162;24.756;2022-12-29T00:38:07;100893.19;;;4.55;92.80
6387;BME280;3226;42.162;24.756;2022-12-29T00:40:53;100894.44;;;4.44;93.42
6387;BME280;3226;42.162;24.756;2022-12-29T00:43:35;100902.53;;;4.59;93.52
6387;BME280;3226;42.162;24.756;2022-12-29T00:46:29;100907.69;;;4.60;93.56
6387;BME280;3226;42.162;24.756;2022-12-29T00:48:57;100913.66;;;4.62;94.06
6387;BME280;3226;42.162;24.756;2022-12-29T00:51:43;100910.50;;;4.78;93.22
6387;BME280;3226;42.162;24.756;2022-12-29T00:54:13;100920.69;;;4.83;93.22
6387;BME280;3226;42.162;24.756;2022-12-29T00:56:45;100913.69;;;4.85;92.48
6387;BME280;3226;42.162;24.756;2022-12-29T00:59:14;100910.28;;;4.60;93.61
6387;BME280;3226;42.162;24.756;2022-12-29T01:01:44;100913.28;;;4.49;94.77
6387;BME280;3226;42.162;24.756;2022-12-29T01:04:12;100916.22;;;4.64;94.22
6387;BME280;3226;42.162;24.756;2022-12-29T01:06:41;100916.28;;;4.85;93.80
6387;BME280;3226;42.162;24.756;2022-12-29T01:09:09;100903.81;;;4.95;92.46
6387;BME280;3226;42.162;24.756;2022-12-29T01:11:56;100908.13;;;4.94;92.53
6387;BME280;3226;42.162;24.756;2022-12-29T01:14:25;100884.63;;;4.75;92.28
6387;BME280;3226;42.162;24.756;2022-12-29T01:16:53;100898.41;;;4.77;93.23
6387;BME280;3226;42.162;24.756;2022-12-29T01:19:22;100902.81;;;4.75;93.10
6387;BME280;3226;42.162;24.756;2022-12-29T01:21:51;100911.06;;;4.86;93.66
6387;BME280;3226;42.162;24.756;2022-12-29T01:24:20;100903.97;;;4.90;92.58
6387;BME280;3226;42.162;24.756;2022-12-29T01:26:48;100903.50;;;4.80;92.81
6387;BME280;3226;42.162;24.756;2022-12-29T01:29:18;100899.81;;;4.86;92.25
6387;BME280;3226;42.162;24.756;2022-12-29T01:31:46;100877.59;;;4.78;92.79
6387;BME280;3226;42.162;24.756;2022-12-29T01:34:16;100906.16;;;5.01;92.18
6387;BME280;3226;42.162;24.756;2022-12-29T01:36:44;100895.47;;;4.86;92.05
6387;BME280;3226;42.162;24.756;2022-12-29T01:39:13;100887.16;;;4.78;93.07
6387;BME280;3226;42.162;24.756;2022-12-29T01:41:41;100891.97;;;4.87;92.64
6387;BME280;3226;42.162;24.756;2022-12-29T01:47:26;100886.91;;;4.84;92.81
6387;BME280;3226;42.162;24.756;2022-12-29T01:49:58;100848.38;;;4.51;93.83
6387;BME280;3226;42.162;24.756;2022-12-29T01:52:29;100870.19;;;4.91;91.72
6387;BME280;3226;42.162;24.756;2022-12-29T01:55:00;100868.38;;;4.94;91.19
6387;BME280;3226;42.162;24.756;2022-12-29T01:57:31;100866.00;;;4.87;90.81
6387;BME280;3226;42.162;24.756;2022-12-29T02:00:03;100863.22;;;4.92;91.63
6387;BME280;3226;42.162;24.756;2022-12-29T02:02:33;100858.75;;;4.96;90.97
6387;BME280;3226;42.162;24.756;2022-12-29T02:05:07;100851.38;;;5.07;90.40
6387;BME280;3226;42.162;24.756;2022-12-29T02:07:37;100836.13;;;4.99;90.46
6387;BME280;3226;42.162;24.756;2022-12-29T02:10:06;100844.72;;;5.22;89.57
6387;BME280;3226;42.162;24.756;2022-12-29T02:12:34;100835.22;;;5.00;89.73
6387;BME280;3226;42.162;24.756;2022-12-29T02:15:04;100843.06;;;4.76;91.91
6387;BME280;3226;42.162;24.756;2022-12-29T02:17:52;100836.31;;;4.95;92.22
6387;BME280;3226;42.162;24.756;2022-12-29T02:20:51;100830.72;;;5.04;90.93
6387;BME280;3226;42.162;24.756;2022-12-29T02:23:54;100823.75;;;4.84;91.53
6387;BME280;3226;42.162;24.756;2022-12-29T02:26:39;100827.88;;;5.10;90.84
6387;BME280;3226;42.162;24.756;2022-12-29T02:29:27;100817.91;;;5.21;90.06
6387;BME280;3226;42.162;24.756;2022-12-29T02:32:08;100827.09;;;5.08;90.11
6387;BME280;3226;42.162;24.756;2022-12-29T02:34:47;100820.03;;;5.12;90.66
6387;BME280;3226;42.162;24.756;2022-12-29T02:37:22;100818.81;;;5.20;89.44
6387;BME280;3226;42.162;24.756;2022-12-29T02:39:57;100816.72;;;5.08;89.81
6387;BME280;3226;42.162;24.756;2022-12-29T02:42:34;100817.56;;;5.09;90.83
6387;BME280;3226;42.162;24.756;2022-12-29T02:45:06;100797.09;;;5.01;90.45
6387;BME280;3226;42.162;24.756;2022-12-29T02:47:48;100820.88;;;5.12;90.23
6387;BME280;3226;42.162;24.756;2022-12-29T02:50:20;100804.25;;;4.96;90.27
6387;BME280;3226;42.162;24.756;2022-12-29T02:52:54;100810.94;;;5.01;90.37
6387;BME280;3226;42.162;24.756;2022-12-29T02:55:24;100806.19;;;5.11;90.23
6387;BME280;3226;42.162;24.756;2022-12-29T02:58:12;100806.28;;;5.10;89.87
6387;BME280;3226;42.162;24.756;2022-12-29T03:00:53;100790.34;;;4.97;90.02
6387;BME280;3226;42.162;24.756;2022-12-29T03:03:31;100798.16;;;4.97;90.22
6387;BME280;3226;42.162;24.756;2022-12-29T03:06:13;100812.53;;;4.61;91.15
6387;BME280;3226;42.162;24.756;2022-12-29T03:08:54;100804.38;;;4.02;93.14
6387;BME280;3226;42.162;24.756;2022-12-29T03:11:32;100812.81;;;3.58;96.09
6387;BME280;3226;42.162;24.756;2022-12-29T03:14:26;100801.19;;;3.44;96.11
6387;BME280;3226;42.162;24.756;2022-12-29T03:17:18;100788.59;;;3.08;97.48
6387;BME280;3226;42.162;24.756;2022-12-29T03:19:52;100804.13;;;3.08;98.38
6387;BME280;3226;42.162;24.756;2022-12-29T03:22:27;100803.78;;;2.92;99.10
6387;BME280;3226;42.162;24.756;2022-12-29T03:25:04;100788.69;;;2.78;99.71
6387;BME280;3226;42.162;24.756;2022-12-29T03:27:39;100803.25;;;2.81;100.00
6387;BME280;3226;42.162;24.756;2022-12-29T03:30:09;100807.03;;;2.70;100.00
6387;BME280;3226;42.162;24.756;2022-12-29T03:32:42;100808.78;;;2.70;100.00
6387;BME280;3226;42.162;24.756;2022-12-29T03:35:13;100811.28;;;2.73;100.00
6387;BME280;3226;42.162;24.756;2022-12-29T03:37:45;100807.91;;;2.71;100.00
6387;BME280;3226;42.162;24.756;2022-12-29T03:40:18;100805.47;;;2.65;100.00
6387;BME280;3226;42.162;24.756;2022-12-29T03:42:48;100811.19;;;2.48;100.00
6387;BME280;3226;42.162;24.756;2022-12-29T03:45:17;100809.25;;;2.54;100.00
6387;BME280;3226;42.162;24.756;2022-12-29T03:47:45;100804.31;;;2.75;100.00
6387;BME280;3226;42.162;24.756;2022-12-29T03:50:14;100801.72;;;2.75;100.00
6387;BME280;3226;42.162;24.756;2022-12-29T03:52:44;100807.50;;;2.83;100.00
6387;BME280;3226;42.162;24.756;2022-12-29T03:55:12;100802.69;;;2.99;100.00
6387;BME280;3226;42.162;24.756;2022-12-29T03:57:40;100800.28;;;2.93;100.00
6387;BME280;3226;42.162;24.756;2022-12-29T04:00:09;100801.66;;;3.05;100.00
6387;BME280;3226;42.162;24.756;2022-12-29T04:02:38;100797.84;;;3.15;99.93
6387;BME280;3226;42.162;24.756;2022-12-29T04:05:06;100807.59;;;2.80;100.00
6387;BME280;3226;42.162;24.756;2022-12-29T04:07:36;100819.75;;;2.50;100.00
6387;BME280;3226;42.162;24.756;2022-12-29T04:10:04;100817.97;;;2.52;100.00
6387;BME280;3226;42.162;24.756;2022-12-29T04:12:33;100825.06;;;2.45;100.00
6387;BME280;3226;42.162;24.756;2022-12-29T04:15:01;100817.47;;;2.39;100.00
6387;BME280;3226;42.162;24.756;2022-12-29T04:17:29;100829.50;;;2.40;100.00
6387;BME280;3226;42.162;24.756;2022-12-29T04:19:57;100829.72;;;2.32;100.00
6387;BME280;3226;42.162;24.756;2022-12-29T04:22:48;100831.50;;;2.30;100.00
6387;BME280;3226;42.162;24.756;2022-12-29T04:25:17;100836.19;;;2.17;100.00
6387;BME280;3226;42.162;24.756;2022-12-29T04:27:45;100833.31;;;2.28;100.00
6387;BME280;3226;42.162;24.756;2022-12-29T04:30:13;100841.97;;;2.25;100.00
6387;BME280;3226;42.162;24.756;2022-12-29T04:32:43;100852.38;;;2.24;100.00
6387;BME280;3226;42.162;24.756;2022-12-29T04:35:11;100848.50;;;2.07;100.00
6387;BME280;3226;42.162;24.756;2022-12-29T04:37:39;100860.16;;;2.22;100.00
6387;BME280;3226;42.162;24.756;2022-12-29T04:40:10;100867.91;;;2.22;100.00
6387;BME280;3226;42.162;24.756;2022-12-29T04:42:38;100867.38;;;2.11;100.00
6387;BME280;3226;42.162;24.756;2022-12-29T04:45:07;100875.13;;;2.11;100.00
6387;BME280;3226;42.162;24.756;2022-12-29T04:47:35;100870.69;;;2.16;100.00
6387;BME280;3226;42.162;24.756;2022-12-29T04:50:04;100868.56;;;2.30;100.00
6387;BME280;3226;42.162;24.756;2022-12-29T04:52:33;100874.53;;;2.33;100.00
6387;BME280;3226;42.162;24.756;2022-12-29T04:55:04;100863.25;;;2.35;100.00
6387;BME280;3226;42.162;24.756;2022-12-29T04:57:34;100849.16;;;2.45;100.00
6387;BME280;3226;42.162;24.756;2022-12-29T05:00:03;100850.22;;;2.68;100.00
6387;BME280;3226;42.162;24.756;2022-12-29T05:02:31;100849.25;;;2.42;100.00
6387;BME280;3226;42.162;24.756;2022-12-29T05:05:00;100872.13;;;2.56;100.00
6387;BME280;3226;42.162;24.756;2022-12-29T05:07:28;100862.06;;;2.45;100.00
6387;BME280;3226;42.162;24.756;2022-12-29T05:09:55;100874.09;;;2.48;100.00
6387;BME280;3226;42.162;24.756;2022-12-29T05:12:23;100870.06;;;2.68;100.00
6387;BME280;3226;42.162;24.756;2022-12-29T05:14:53;100861.78;;;2.56;100.00
6387;BME280;3226;42.162;24.756;2022-12-29T05:20:42;100863.47;;;2.57;100.00
6387;BME280;3226;42.162;24.756;2022-12-29T05:23:10;100862.06;;;2.45;100.00
6387;BME280;3226;42.162;24.756;2022-12-29T05:25:38;100865.03;;;2.33;100.00
6387;BME280;3226;42.162;24.756;2022-12-29T05:28:06;100858.94;;;2.36;100.00
6387;BME280;3226;42.162;24.756;2022-12-29T05:30:35;100856.59;;;2.56;100.00
6387;BME280;3226;42.162;24.756;2022-12-29T05:33:03;100854.91;;;2.55;100.00
6387;BME280;3226;42.162;24.756;2022-12-29T05:35:33;100860.16;;;2.52;100.00
6387;BME280;3226;42.162;24.756;2022-12-29T05:38:01;100855.69;;;2.57;100.00
6387;BME280;3226;42.162;24.756;2022-12-29T05:40:29;100853.78;;;2.64;100.00
6387;BME280;3226;42.162;24.756;2022-12-29T05:42:58;100848.31;;;2.73;100.00
6387;BME280;3226;42.162;24.756;2022-12-29T05:45:26;100845.16;;;2.64;100.00
6387;BME280;3226;42.162;24.756;2022-12-29T05:47:55;100841.19;;;2.53;100.00
6387;BME280;3226;42.162;24.756;2022-12-29T05:50:23;100842.75;;;2.59;100.00
6387;BME280;3226;42.162;24.756;2022-12-29T05:52:51;100838.59;;;2.23;100.00
6387;BME280;3226;42.162;24.756;2022-12-29T05:55:19;100840.44;;;2.20;100.00
6387;BME280;3226;42.162;24.756;2022-12-29T05:57:47;100841.97;;;2.55;100.00
6387;BME280;3226;42.162;24.756;2022-12-29T06:00:16;100841.28;;;2.50;100.00
6387;BME280;3226;42.162;24.756;2022-12-29T06:02:44;100854.28;;;2.17;100.00
6387;BME280;3226;42.162;24.756;2022-12-29T06:05:14;100854.19;;;2.20;100.00
6387;BME280;3226;42.162;24.756;2022-12-29T06:07:42;100855.47;;;2.37;100.00
6387;BME280;3226;42.162;24.756;2022-12-29T06:10:11;100853.13;;;2.57;100.00
6387;BME280;3226;42.162;24.756;2022-12-29T06:12:39;100855.19;;;2.74;100.00
6387;BME280;3226;42.162;24.756;2022-12-29T06:15:08;100844.84;;;2.74;100.00
6387;BME280;3226;42.162;24.756;2022-12-29T06:17:36;100846.53;;;2.75;100.00
6387;BME280;3226;42.162;24.756;2022-12-29T06:20:04;100842.59;;;2.64;100.00
6387;BME280;3226;42.162;24.756;2022-12-29T06:22:34;100810.44;;;2.44;100.00
6387;BME280;3226;42.162;24.756;2022-12-29T06:25:03;100844.53;;;2.85;100.00
6387;BME280;3226;42.162;24.756;2022-12-29T06:27:32;100854.84;;;2.87;100.00
6387;BME280;3226;42.162;24.756;2022-12-29T06:30:00;100859.53;;;2.74;100.00
6387;BME280;3226;42.162;24.756;2022-12-29T06:32:28;100863.19;;;2.95;100.00
6387;BME280;3226;42.162;24.756;2022-12-29T06:34:56;100857.53;;;3.11;100.00
6387;BME280;3226;42.162;24.756;2022-12-29T06:37:24;100866.06;;;3.14;99.58
6387;BME280;3226;42.162;24.756;2022-12-29T06:39:53;100865.69;;;2.98;99.62
6387;BME280;3226;42.162;24.756;2022-12-29T06:42:21;100865.50;;;3.04;99.28
6387;BME280;3226;42.162;24.756;2022-12-29T06:44:50;100869.34;;;3.20;98.67
6387;BME280;3226;42.162;24.756;2022-12-29T06:47:18;100877.50;;;3.07;99.84
6387;BME280;3226;42.162;24.756;2022-12-29T06:49:46;100875.84;;;3.31;98.90
6387;BME280;3226;42.162;24.756;2022-12-29T06:52:14;100879.81;;;3.69;97.55
6387;BME280;3226;42.162;24.756;2022-12-29T06:54:42;100880.59;;;3.96;94.40
6387;BME280;3226;42.162;24.756;2022-12-29T06:57:12;100878.94;;;3.68;93.48
6387;BME280;3226;42.162;24.756;2022-12-29T06:59:40;100886.47;;;3.51;93.83
6387;BME280;3226;42.162;24.756;2022-12-29T07:02:09;100880.06;;;3.34;94.20
6387;BME280;3226;42.162;24.756;2022-12-29T07:04:38;100891.25;;;3.09;95.50
6387;BME280;3226;42.162;24.756;2022-12-29T07:07:06;100896.06;;;2.63;96.82
6387;BME280;3226;42.162;24.756;2022-12-29T07:09:34;100901.91;;;2.40;97.26
6387;BME280;3226;42.162;24.756;2022-12-29T07:12:02;100881.72;;;2.21;97.76
6387;BME280;3226;42.162;24.756;2022-12-29T07:14:31;100900.13;;;2.42;98.22
6387;BME280;3226;42.162;24.756;2022-12-29T07:17:08;100897.63;;;2.39;97.96
6387;BME280;3226;42.162;24.756;2022-12-29T07:19:36;100893.88;;;2.49;97.11
6387;BME280;3226;42.162;24.756;2022-12-29T07:22:04;100902.75;;;2.40;96.92
6387;BME280;3226;42.162;24.756;2022-12-29T07:24:32;100899.84;;;2.51;97.86
6387;BME280;3226;42.162;24.756;2022-12-29T07:27:00;100894.69;;;2.51;96.51
6387;BME280;3226;42.162;24.756;2022-12-29T07:29:28;100896.47;;;2.49;95.81
6387;BME280;3226;42.162;24.756;2022-12-29T07:31:57;100888.28;;;2.35;96.26
6387;BME280;3226;42.162;24.756;2022-12-29T07:34:26;100890.78;;;2.36;96.23
6387;BME280;3226;42.162;24.756;2022-12-29T07:36:53;100858.53;;;2.20;95.82
6387;BME280;3226;42.162;24.756;2022-12-29T07:39:22;100890.53;;;2.45;96.41
6387;BME280;3226;42.162;24.756;2022-12-29T07:41:50;100884.03;;;2.32;96.15
6387;BME280;3226;42.162;24.756;2022-12-29T07:44:18;100892.19;;;2.48;97.62
6387;BME280;3226;42.162;24.756;2022-12-29T07:46:46;100890.03;;;2.63;97.14
6387;BME280;3226;42.162;24.756;2022-12-29T07:49:24;100893.97;;;2.76;96.65
6387;BME280;3226;42.162;24.756;2022-12-29T07:51:52;100898.94;;;2.82;95.68
6387;BME280;3226;42.162;24.756;2022-12-29T07:54:20;100888.59;;;2.82;95.73
6387;BME280;3226;42.162;24.756;2022-12-29T07:56:50;100887.63;;;2.86;94.98
6387;BME280;3226;42.162;24.756;2022-12-29T07:59:18;100895.66;;;2.77;96.04
6387;BME280;3226;42.162;24.756;2022-12-29T08:01:46;100864.63;;;2.77;94.79
6387;BME280;3226;42.162;24.756;2022-12-29T08:04:14;100889.53;;;2.80;94.87
6387;BME280;3226;42.162;24.756;2022-12-29T08:06:43;100890.69;;;2.71;95.61
6387;BME280;3226;42.162;24.756;2022-12-29T08:09:12;100896.50;;;2.78;96.98
6387;BME280;3226;42.162;24.756;2022-12-29T08:11:47;100904.00;;;2.87;96.39
6387;BME280;3226;42.162;24.756;2022-12-29T08:14:15;100902.06;;;2.94;96.86
6387;BME280;3226;42.162;24.756;2022-12-29T08:16:43;100901.88;;;3.27;97.12
6387;BME280;3226;42.162;24.756;2022-12-29T08:19:12;100903.06;;;3.70;95.83
6387;BME280;3226;42.162;24.756;2022-12-29T08:21:40;100891.00;;;3.69;93.71
6387;BME280;3226;42.162;24.756;2022-12-29T08:24:10;100894.00;;;3.84;94.07
6387;BME280;3226;42.162;24.756;2022-12-29T08:26:38;100894.00;;;3.84;94.23
6387;BME280;3226;42.162;24.756;2022-12-29T08:29:06;100899.41;;;4.01;93.38
6387;BME280;3226;42.162;24.756;2022-12-29T08:31:34;100870.59;;;3.85;92.46
6387;BME280;3226;42.162;24.756;2022-12-29T08:34:02;100888.00;;;3.82;93.52
6387;BME280;3226;42.162;24.756;2022-12-29T08:36:34;100883.22;;;3.69;93.70
6387;BME280;3226;42.162;24.756;2022-12-29T08:39:02;100885.53;;;3.79;94.21
6387;BME280;3226;42.162;24.756;2022-12-29T08:41:31;100872.72;;;3.74;93.32
6387;BME280;3226;42.162;24.756;2022-12-29T08:43:59;100879.59;;;3.75;93.02
6387;BME280;3226;42.162;24.756;2022-12-29T08:46:27;100876.91;;;3.78;93.38
6387;BME280;3226;42.162;24.756;2022-12-29T08:48:55;100870.59;;;4.11;92.93
6387;BME280;3226;42.162;24.756;2022-12-29T08:51:23;100877.81;;;4.26;92.40
6387;BME280;3226;42.162;24.756;2022-12-29T08:53:51;100872.63;;;4.50;90.49
6387;BME280;3226;42.162;24.756;2022-12-29T08:56:20;100863.81;;;4.54;89.29
6387;BME280;3226;42.162;24.756;2022-12-29T08:58:52;100860.44;;;4.74;88.82
6387;BME280;3226;42.162;24.756;2022-12-29T09:01:20;100859.38;;;4.80;88.82
6387;BME280;3226;42.162;24.756;2022-12-29T09:03:49;100849.94;;;5.00;87.52
6387;BME280;3226;42.162;24.756;2022-12-29T09:06:37;100849.56;;;5.09;87.52
6387;BME280;3226;42.162;24.756;2022-12-29T09:09:07;100849.44;;;5.34;86.35
6387;BME280;3226;42.162;24.756;2022-12-29T09:11:34;100838.19;;;5.34;86.12
6387;BME280;3226;42.162;24.756;2022-12-29T09:14:04;100832.78;;;5.59;85.53
6387;BME280;3226;42.162;24.756;2022-12-29T09:16:32;100836.59;;;5.92;85.42
6387;BME280;3226;42.162;24.756;2022-12-29T09:19:01;100821.31;;;5.84;84.07
6387;BME280;3226;42.162;24.756;2022-12-29T09:21:29;100831.50;;;6.10;83.55
6387;BME280;3226;42.162;24.756;2022-12-29T09:23:58;100827.59;;;6.20;83.36
6387;BME280;3226;42.162;24.756;2022-12-29T09:26:25;100833.38;;;5.87;84.02
6387;BME280;3226;42.162;24.756;2022-12-29T09:28:53;100825.50;;;6.28;82.80
6387;BME280;3226;42.162;24.756;2022-12-29T09:31:23;100818.31;;;6.33;83.17
6387;BME280;3226;42.162;24.756;2022-12-29T09:33:51;100807.81;;;6.54;82.60
6387;BME280;3226;42.162;24.756;2022-12-29T09:36:19;100806.47;;;6.64;82.11
6387;BME280;3226;42.162;24.756;2022-12-29T09:38:47;100802.78;;;6.69;80.78
6387;BME280;3226;42.162;24.756;2022-12-29T09:41:19;100798.06;;;6.77;80.47
6387;BME280;3226;42.162;24.756;2022-12-29T09:44:02;100794.00;;;7.06;79.26
6387;BME280;3226;42.162;24.756;2022-12-29T09:46:37;100787.22;;;7.39;77.67
6387;BME280;3226;42.162;24.756;2022-12-29T09:49:16;100801.38;;;7.51;77.23
6387;BME280;3226;42.162;24.756;2022-12-29T09:51:50;100779.66;;;7.50;76.15
6387;BME280;3226;42.162;24.756;2022-12-29T09:54:39;100763.75;;;7.21;76.05
6387;BME280;3226;42.162;24.756;2022-12-29T09:57:15;100768.09;;;7.56;75.91
6387;BME280;3226;42.162;24.756;2022-12-29T09:59:46;100757.00;;;7.17;75.90
6387;BME280;3226;42.162;24.756;2022-12-29T10:02:31;100766.84;;;6.94;77.27
6387;BME280;3226;42.162;24.756;2022-12-29T10:05:00;100742.16;;;6.67;77.86
6387;BME280;3226;42.162;24.756;2022-12-29T10:07:36;100756.84;;;6.85;78.77
6387;BME280;3226;42.162;24.756;2022-12-29T10:10:23;100729.75;;;7.07;77.83
6387;BME280;3226;42.162;24.756;2022-12-29T10:13:04;100730.28;;;7.14;77.28
6387;BME280;3226;42.162;24.756;2022-12-29T10:15:49;100743.06;;;7.18;77.80
6387;BME280;3226;42.162;24.756;2022-12-29T10:18:32;100747.28;;;7.72;76.42
6387;BME280;3226;42.162;24.756;2022-12-29T10:21:10;100735.19;;;8.19;74.26
6387;BME280;3226;42.162;24.756;2022-12-29T10:23:43;100735.00;;;8.38;73.14
6387;BME280;3226;42.162;24.756;2022-12-29T10:26:16;100735.03;;;8.22;74.64
6387;BME280;3226;42.162;24.756;2022-12-29T10:28:47;100729.97;;;8.35;73.58
6387;BME280;3226;42.162;24.756;2022-12-29T10:31:20;100723.25;;;8.15;72.94
6387;BME280;3226;42.162;24.756;2022-12-29T10:33:55;100729.53;;;7.95;74.32
6387;BME280;3226;42.162;24.756;2022-12-29T10:36:28;100723.84;;;8.04;75.01
6387;BME280;3226;42.162;24.756;2022-12-29T10:39:05;100715.53;;;8.28;73.86
6387;BME280;3226;42.162;24.756;2022-12-29T10:41:38;100696.13;;;8.18;74.11
6387;BME280;3226;42.162;24.756;2022-12-29T10:44:11;100715.31;;;8.17;73.96
6387;BME280;3226;42.162;24.756;2022-12-29T10:46:41;100717.56;;;7.91;74.95
6387;BME280;3226;42.162;24.756;2022-12-29T10:49:15;100718.09;;;7.81;75.78
6387;BME280;3226;42.162;24.756;2022-12-29T10:51:48;100709.16;;;8.18;75.68
6387;BME280;3226;42.162;24.756;2022-12-29T10:54:23;100713.28;;;8.54;73.79
6387;BME280;3226;42.162;24.756;2022-12-29T10:56:57;100716.53;;;8.74;73.33
6387;BME280;3226;42.162;24.756;2022-12-29T10:59:30;100710.69;;;8.85;71.80
6387;BME280;3226;42.162;24.756;2022-12-29T11:02:04;100667.00;;;8.25;73.02
6387;BME280;3226;42.162;24.756;2022-12-29T11:04:48;100676.72;;;8.38;74.23
6387;BME280;3226;42.162;24.756;2022-12-29T11:07:21;100693.88;;;8.58;73.84
6387;BME280;3226;42.162;24.756;2022-12-29T11:09:53;100682.66;;;8.09;75.17
6387;BME280;3226;42.162;24.756;2022-12-29T11:12:23;100687.19;;;8.22;75.06
6387;BME280;3226;42.162;24.756;2022-12-29T11:15:12;100676.41;;;8.12;75.46
6387;BME280;3226;42.162;24.756;2022-12-29T11:17:45;100663.88;;;8.19;75.59
6387;BME280;3226;42.162;24.756;2022-12-29T11:20:28;100663.59;;;8.39;73.13
6387;BME280;3226;42.162;24.756;2022-12-29T11:22:57;100671.88;;;8.62;72.42
6387;BME280;3226;42.162;24.756;2022-12-29T11:25:26;100674.44;;;8.48;72.88
6387;BME280;3226;42.162;24.756;2022-12-29T11:27:56;100667.91;;;8.71;72.05
6387;BME280;3226;42.162;24.756;2022-12-29T11:30:25;100671.31;;;8.88;71.65
6387;BME280;3226;42.162;24.756;2022-12-29T11:32:55;100672.19;;;9.17;70.91
6387;BME280;3226;42.162;24.756;2022-12-29T11:35:33;100660.22;;;9.28;70.24
6387;BME280;3226;42.162;24.756;2022-12-29T11:38:02;100667.31;;;9.25;69.61
6387;BME280;3226;42.162;24.756;2022-12-29T11:40:31;100662.13;;;8.66;70.41
6387;BME280;3226;42.162;24.756;2022-12-29T11:43:06;100663.34;;;8.75;71.24
6387;BME280;3226;42.162;24.756;2022-12-29T11:45:45;100663.22;;;9.07;70.88
6387;BME280;3226;42.162;24.756;2022-12-29T11:48:17;100640.78;;;9.32;69.50
6387;BME280;3226;42.162;24.756;2022-12-29T11:50:51;100651.91;;;9.35;69.70
6387;BME280;3226;42.162;24.756;2022-12-29T11:53:22;100649.19;;;9.51;68.99
6387;BME280;3226;42.162;24.756;2022-12-29T11:55:53;100644.31;;;9.74;67.42
6387;BME280;3226;42.162;24.756;2022-12-29T11:58:28;100641.50;;;9.63;66.92
6387;BME280;3226;42.162;24.756;2022-12-29T12:01:01;100639.19;;;9.44;66.79
6387;BME280;3226;42.162;24.756;2022-12-29T12:03:32;100636.59;;;9.58;67.15
6387;BME280;3226;42.162;24.756;2022-12-29T12:06:07;100637.56;;;9.70;66.54
6387;BME280;3226;42.162;24.756;2022-12-29T12:08:41;100631.78;;;9.79;65.83
6387;BME280;3226;42.162;24.756;2022-12-29T12:11:14;100632.38;;;9.55;66.26
6387;BME280;3226;42.162;24.756;2022-12-29T12:13:47;100624.31;;;9.73;66.02
6387;BME280;3226;42.162;24.756;2022-12-29T12:16:27;100627.09;;;9.84;65.31
6387;BME280;3226;42.162;24.756;2022-12-29T12:19:03;100622.72;;;9.98;64.81
6387;BME280;3226;42.162;24.756;2022-12-29T12:21:39;100623.25;;;10.03;64.93
6387;BME280;3226;42.162;24.756;2022-12-29T12:24:34;100613.75;;;10.02;65.19
6387;BME280;3226;42.162;24.756;2022-12-29T12:27:10;100598.88;;;10.03;64.46
6387;BME280;3226;42.162;24.756;2022-12-29T12:29:46;100619.47;;;10.22;63.97
6387;BME280;3226;42.162;24.756;2022-12-29T12:32:20;100615.41;;;10.03;64.80
6387;BME280;3226;42.162;24.756;2022-12-29T12:34:51;100612.88;;;9.89;64.91
6387;BME280;3226;42.162;24.756;2022-12-29T12:37:32;100608.75;;;10.12;64.49
6387;BME280;3226;42.162;24.756;2022-12-29T12:43:37;100586.91;;;9.86;65.01
6387;BME280;3226;42.162;24.756;2022-12-29T12:46:21;100602.59;;;9.86;65.37
6387;BME280;3226;42.162;24.756;2022-12-29T12:49:16;100602.13;;;9.93;64.96
6387;BME280;3226;42.162;24.756;2022-12-29T12:51:54;100605.66;;;9.92;65.19
6387;BME280;3226;42.162;24.756;2022-12-29T12:54:46;100597.44;;;9.57;65.60
6387;BME280;3226;42.162;24.756;2022-12-29T12:57:22;100602.88;;;9.53;66.72
6387;BME280;3226;42.162;24.756;2022-12-29T13:00:00;100602.78;;;9.40;66.70
6387;BME280;3226;42.162;24.756;2022-12-29T13:02:40;100611.38;;;9.43;66.49
6387;BME280;3226;42.162;24.756;2022-12-29T13:05:21;100609.69;;;9.42;67.04
6387;BME280;3226;42.162;24.756;2022-12-29T13:10:49;100605.81;;;9.76;65.46
6387;BME280;3226;42.162;24.756;2022-12-29T13:13:43;100600.81;;;9.59;65.78
6387;BME280;3226;42.162;24.756;2022-12-29T13:16:19;100609.72;;;9.83;64.76
6387;BME280;3226;42.162;24.756;2022-12-29T13:18:57;100603.41;;;9.59;65.67
6387;BME280;3226;42.162;24.756;2022-12-29T13:21:48;100609.06;;;9.23;67.51
6387;BME280;3226;42.162;24.756;2022-12-29T13:24:35;100611.06;;;9.20;67.73
6387;BME280;3226;42.162;24.756;2022-12-29T13:27:13;100611.50;;;8.97;68.55
6387;BME280;3226;42.162;24.756;2022-12-29T13:29:49;100600.50;;;9.07;68.21
6387;BME280;3226;42.162;24.756;2022-12-29T13:32:24;100610.09;;;9.06;68.47
6387;BME280;3226;42.162;24.756;2022-12-29T13:35:07;100595.28;;;9.07;68.68
6387;BME280;3226;42.162;24.756;2022-12-29T13:37:47;100603.28;;;8.89;69.79
6387;BME280;3226;42.162;24.756;2022-12-29T13:40:22;100606.66;;;8.91;69.83
6387;BME280;3226;42.162;24.756;2022-12-29T13:42:55;100600.69;;;9.04;69.32
6387;BME280;3226;42.162;24.756;2022-12-29T13:45:26;100610.94;;;8.78;70.24
6387;BME280;3226;42.162;24.756;2022-12-29T13:47:59;100611.13;;;8.75;70.81
6387;BME280;3226;42.162;24.756;2022-12-29T13:50:35;100609.03;;;8.65;70.57